createdAt,value
2019-03-09T00:00:11.705Z,3.37
2019-03-09T00:02:39.664Z,3.77
2019-03-09T00:05:16.253Z,4.33
2019-03-09T00:07:44.210Z,5.60
2019-03-09T00:10:12.491Z,5.77
2019-03-09T00:12:40.780Z,5.50
2019-03-09T00:15:09.169Z,5.00
2019-03-09T00:17:37.805Z,4.30
2019-03-09T00:20:05.415Z,5.37
2019-03-09T00:22:33.684Z,4.90
2019-03-09T00:25:21.406Z,4.93
2019-03-09T00:28:09.304Z,5.80
2019-03-09T00:30:56.286Z,4.90
2019-03-09T00:33:25.064Z,5.70
2019-03-09T00:35:53.522Z,4.67
2019-03-09T00:38:21.734Z,5.13
2019-03-09T00:40:50.465Z,4.07
2019-03-09T00:43:18.699Z,5.37
2019-03-09T00:45:47.440Z,4.77
2019-03-09T00:48:16.119Z,5.97
2019-03-09T00:50:44.135Z,4.87
2019-03-09T00:53:12.371Z,7.17
2019-03-09T00:55:40.611Z,7.40
2019-03-09T00:58:09.336Z,5.83
2019-03-09T01:00:37.621Z,4.63
2019-03-09T01:03:06.290Z,3.07
2019-03-09T01:05:34.824Z,4.30
2019-03-09T01:08:02.755Z,4.03
2019-03-09T01:10:31.010Z,3.10
2019-03-09T01:12:58.893Z,3.10
2019-03-09T01:15:27.178Z,2.60
2019-03-09T01:17:55.151Z,3.13
2019-03-09T01:20:23.076Z,3.23
2019-03-09T01:22:51.307Z,3.33
2019-03-09T01:25:20.030Z,2.77
2019-03-09T01:27:48.797Z,2.30
2019-03-09T01:30:17.585Z,2.53
2019-03-09T01:32:45.874Z,2.70
2019-03-09T01:35:54.457Z,3.20
2019-03-09T01:38:23.048Z,2.97
2019-03-09T01:41:03.500Z,2.53
2019-03-09T01:43:31.395Z,2.40
2019-03-09T01:45:59.350Z,2.80
2019-03-09T01:48:27.641Z,2.47
2019-03-09T01:50:55.606Z,2.60
2019-03-09T01:53:24.216Z,2.70
2019-03-09T01:55:52.435Z,2.07
2019-03-09T01:58:21.130Z,2.57
2019-03-09T02:00:49.371Z,2.53
2019-03-09T02:03:17.849Z,2.60
2019-03-09T02:05:46.399Z,2.90
2019-03-09T02:08:14.308Z,2.60
2019-03-09T02:10:42.356Z,2.77
2019-03-09T02:13:10.570Z,2.70
2019-03-09T02:15:38.950Z,2.97
2019-03-09T02:18:06.936Z,2.87
2019-03-09T02:20:34.819Z,2.50
2019-03-09T02:23:03.192Z,2.80
2019-03-09T02:25:31.464Z,3.00
2019-03-09T02:27:59.685Z,2.93
2019-03-09T02:30:28.020Z,2.67
2019-03-09T02:32:56.209Z,2.47
2019-03-09T02:35:24.739Z,2.87
2019-03-09T02:41:09.776Z,3.07
2019-03-09T02:43:37.983Z,2.90
2019-03-09T02:46:06.579Z,2.73
2019-03-09T02:48:34.507Z,2.23
2019-03-09T02:51:03.025Z,2.60
2019-03-09T02:53:31.282Z,2.47
2019-03-09T02:55:59.806Z,2.60
2019-03-09T02:58:28.455Z,2.13
2019-03-09T03:01:16.196Z,2.87
2019-03-09T03:03:44.359Z,2.60
2019-03-09T03:06:12.670Z,2.50
2019-03-09T03:08:40.506Z,2.30
2019-03-09T03:11:09.055Z,2.10
2019-03-09T03:13:36.941Z,2.23
2019-03-09T03:16:04.755Z,2.60
2019-03-09T03:18:33.429Z,2.33
2019-03-09T03:21:01.699Z,1.90
2019-03-09T03:23:29.990Z,1.90
2019-03-09T03:25:58.589Z,1.80
2019-03-09T03:28:27.285Z,1.70
2019-03-09T03:30:55.900Z,1.90
2019-03-09T03:33:23.906Z,1.70
2019-03-09T03:35:52.328Z,1.50
2019-03-09T03:38:20.202Z,1.60
2019-03-09T03:40:48.820Z,1.60
2019-03-09T03:43:16.831Z,1.53
2019-03-09T03:45:44.740Z,1.50
2019-03-09T03:48:13.420Z,1.60
2019-03-09T03:50:41.723Z,1.33
2019-03-09T03:53:10.252Z,1.53
2019-03-09T03:55:38.601Z,1.53
2019-03-09T03:58:07.874Z,1.40
2019-03-09T04:00:36.515Z,1.30
2019-03-09T04:06:06.214Z,1.47
2019-03-09T04:08:34.735Z,1.80
2019-03-09T04:14:23.973Z,1.30
2019-03-09T04:16:52.265Z,2.07
2019-03-09T04:19:20.234Z,1.50
2019-03-09T04:21:48.798Z,1.20
2019-03-09T04:24:18.155Z,1.30
2019-03-09T04:26:46.796Z,1.33
2019-03-09T04:29:15.145Z,1.50
2019-03-09T04:31:43.225Z,1.73
2019-03-09T04:34:11.544Z,1.37
2019-03-09T04:36:39.862Z,1.47
2019-03-09T04:39:08.527Z,1.30
2019-03-09T04:41:37.135Z,1.50
2019-03-09T04:44:05.849Z,1.13
2019-03-09T04:46:34.191Z,1.17
2019-03-09T04:49:02.816Z,1.20
2019-03-09T04:51:30.741Z,1.37
2019-03-09T04:53:59.097Z,1.20
2019-03-09T04:56:27.751Z,0.90
2019-03-09T05:01:36.047Z,1.03
2019-03-09T05:04:52.274Z,0.90
2019-03-09T05:07:41.317Z,0.97
2019-03-09T05:10:20.961Z,1.00
2019-03-09T05:12:51.124Z,1.50
2019-03-09T05:15:19.093Z,1.20
2019-03-09T05:17:47.857Z,0.97
2019-03-09T05:20:16.559Z,1.00
2019-03-09T05:22:45.235Z,1.43
2019-03-09T05:25:13.069Z,1.27
2019-03-09T05:27:41.311Z,0.80
2019-03-09T05:33:12.309Z,1.10
2019-03-09T05:35:40.929Z,1.20
2019-03-09T05:38:08.868Z,1.10
2019-03-09T05:40:37.285Z,1.17
2019-03-09T05:43:05.571Z,0.90
2019-03-09T05:45:34.401Z,1.03
2019-03-09T05:48:03.147Z,1.10
2019-03-09T05:50:31.211Z,0.90
2019-03-09T05:53:19.432Z,0.90
2019-03-09T05:55:48.031Z,0.83
2019-03-09T05:58:15.906Z,1.10
2019-03-09T06:00:44.636Z,1.30
2019-03-09T06:03:13.489Z,0.90
2019-03-09T06:05:46.009Z,1.27
2019-03-09T06:08:14.976Z,1.20
2019-03-09T06:10:43.250Z,1.00
2019-03-09T06:13:31.484Z,1.10
2019-03-09T06:15:59.458Z,2.10
2019-03-09T06:18:28.115Z,1.10
2019-03-09T06:20:56.973Z,3.10
2019-03-09T06:23:25.328Z,1.77
2019-03-09T06:25:53.191Z,1.00
2019-03-09T06:28:21.431Z,1.73
2019-03-09T06:30:50.104Z,1.10
2019-03-09T06:33:37.475Z,1.20
2019-03-09T06:36:44.095Z,1.50
2019-03-09T06:39:33.306Z,1.60
2019-03-09T06:42:16.422Z,1.20
2019-03-09T06:44:45.123Z,1.20
2019-03-09T06:47:13.649Z,1.07
2019-03-09T06:49:42.276Z,1.20
2019-03-09T06:52:10.274Z,0.90
2019-03-09T06:54:39.059Z,1.40
2019-03-09T06:57:13.926Z,1.00
2019-03-09T06:59:43.134Z,1.47
2019-03-09T07:02:11.500Z,1.30
2019-03-09T07:04:39.590Z,1.13
2019-03-09T07:07:07.885Z,1.60
2019-03-09T07:09:35.726Z,1.30
2019-03-09T07:12:04.337Z,1.33
2019-03-09T07:15:11.044Z,1.00
2019-03-09T07:17:38.927Z,1.10
2019-03-09T07:20:12.727Z,1.00
2019-03-09T07:22:45.738Z,1.00
2019-03-09T07:25:14.329Z,1.00
2019-03-09T07:27:42.819Z,1.30
2019-03-09T07:30:30.219Z,1.30
2019-03-09T07:32:59.141Z,1.20
2019-03-09T07:35:27.899Z,1.20
2019-03-09T07:37:56.126Z,1.73
2019-03-09T07:40:24.890Z,1.20
2019-03-09T07:42:52.449Z,2.00
2019-03-09T07:45:20.742Z,1.30
2019-03-09T07:47:49.029Z,1.00
2019-03-09T07:50:17.244Z,1.50
2019-03-09T07:52:45.785Z,1.07
2019-03-09T07:55:13.926Z,1.13
2019-03-09T07:57:42.657Z,1.30
2019-03-09T08:00:13.050Z,0.90
2019-03-09T08:02:41.080Z,0.63
2019-03-09T08:05:49.331Z,0.77
2019-03-09T08:08:18.471Z,1.30
2019-03-09T08:10:46.948Z,1.30
2019-03-09T08:13:16.085Z,1.53
2019-03-09T08:15:44.027Z,1.30
2019-03-09T08:18:12.996Z,0.77
2019-03-09T08:20:41.730Z,0.77
2019-03-09T08:23:10.427Z,0.80
2019-03-09T08:25:38.979Z,1.13
2019-03-09T08:28:07.382Z,0.70
2019-03-09T08:30:36.007Z,0.70
2019-03-09T08:33:04.731Z,1.00
2019-03-09T08:35:33.391Z,1.10
2019-03-09T08:38:01.324Z,0.80
2019-03-09T08:40:29.207Z,0.60
2019-03-09T08:43:37.482Z,0.80
2019-03-09T08:46:05.507Z,0.80
2019-03-09T08:48:34.267Z,1.00
2019-03-09T08:51:02.861Z,1.27
2019-03-09T08:53:31.670Z,0.60
2019-03-09T08:59:01.455Z,0.90
2019-03-09T09:01:30.100Z,0.70
2019-03-09T09:03:58.898Z,0.70
2019-03-09T09:06:27.693Z,1.00
2019-03-09T09:08:56.371Z,1.13
2019-03-09T09:11:24.773Z,1.10
2019-03-09T09:13:53.107Z,0.80
2019-03-09T09:16:22.230Z,0.90
2019-03-09T09:18:50.561Z,0.70
2019-03-09T09:21:18.896Z,0.83
2019-03-09T09:23:47.136Z,0.90
2019-03-09T09:26:15.439Z,0.70
2019-03-09T09:28:43.748Z,0.60
2019-03-09T09:31:12.085Z,0.93
2019-03-09T09:33:40.817Z,0.67
2019-03-09T09:36:09.539Z,0.67
2019-03-09T09:38:38.270Z,0.70
2019-03-09T09:41:06.720Z,0.50
2019-03-09T09:43:35.346Z,0.67
2019-03-09T09:46:03.643Z,0.80
2019-03-09T09:48:32.320Z,0.73
2019-03-09T09:51:00.333Z,0.60
2019-03-09T09:53:28.502Z,0.60
2019-03-09T09:55:56.661Z,0.70
2019-03-09T09:58:25.156Z,0.60
2019-03-09T10:00:53.632Z,0.80
2019-03-09T10:03:22.315Z,0.60
2019-03-09T10:05:50.678Z,0.50
2019-03-09T10:08:19.223Z,0.60
2019-03-09T10:10:47.746Z,0.70
2019-03-09T10:13:16.474Z,0.60
2019-03-09T10:15:44.852Z,1.57
2019-03-09T10:18:13.015Z,0.50
2019-03-09T10:20:41.631Z,0.60
2019-03-09T10:23:09.778Z,0.60
2019-03-09T10:25:38.177Z,0.63
2019-03-09T10:28:06.169Z,0.70
2019-03-09T10:30:34.085Z,0.67
2019-03-09T10:33:02.583Z,0.50
2019-03-09T10:35:31.221Z,0.50
2019-03-09T10:37:59.814Z,0.60
2019-03-09T10:40:28.142Z,0.50
2019-03-09T10:42:56.350Z,0.60
2019-03-09T10:45:25.101Z,0.43
2019-03-09T10:47:53.557Z,0.70
2019-03-09T10:50:22.332Z,0.50
2019-03-09T10:52:51.225Z,0.60
2019-03-09T10:55:19.928Z,0.70
2019-03-09T10:57:48.222Z,0.60
2019-03-09T11:00:18.702Z,0.80
2019-03-09T11:02:46.538Z,1.00
2019-03-09T11:08:36.192Z,0.77
2019-03-09T11:11:05.083Z,1.17
2019-03-09T11:13:33.693Z,1.00
2019-03-09T11:16:01.850Z,1.10
2019-03-09T11:18:30.225Z,0.80
2019-03-09T11:20:58.858Z,1.07
2019-03-09T11:23:27.531Z,0.53
2019-03-09T11:25:55.907Z,1.07
2019-03-09T11:28:24.530Z,0.77
2019-03-09T11:31:34.214Z,0.80
2019-03-09T11:34:02.146Z,1.20
2019-03-09T11:36:30.074Z,0.80
2019-03-09T11:38:58.415Z,0.63
2019-03-09T11:41:26.977Z,0.80
2019-03-09T11:43:55.415Z,0.50
2019-03-09T11:46:24.014Z,0.60
2019-03-09T11:48:51.958Z,0.77
2019-03-09T11:51:20.386Z,0.87
2019-03-09T11:53:48.598Z,0.60
2019-03-09T11:56:17.226Z,0.83
2019-03-09T11:58:45.041Z,0.70
2019-03-09T12:01:13.694Z,0.70
2019-03-09T12:03:41.617Z,0.87
2019-03-09T12:06:09.664Z,0.80
2019-03-09T12:08:37.559Z,1.00
2019-03-09T12:11:06.198Z,0.67
2019-03-09T12:13:35.040Z,0.60
2019-03-09T12:16:03.710Z,0.60
2019-03-09T12:18:31.651Z,1.07
2019-03-09T12:20:59.548Z,2.33
2019-03-09T12:23:27.778Z,0.93
2019-03-09T12:25:56.317Z,0.80
2019-03-09T12:28:24.629Z,1.60
2019-03-09T12:30:52.892Z,1.37
2019-03-09T12:33:21.529Z,1.00
2019-03-09T12:35:57.427Z,1.03
2019-03-09T12:38:26.259Z,0.90
2019-03-09T12:40:55.118Z,1.20
2019-03-09T12:43:23.908Z,0.70
2019-03-09T12:45:52.788Z,1.80
2019-03-09T12:48:21.196Z,1.60
2019-03-09T12:50:49.141Z,1.90
2019-03-09T12:53:17.541Z,0.97
2019-03-09T12:55:45.834Z,2.90
2019-03-09T12:58:13.715Z,2.60
2019-03-09T13:00:41.962Z,1.80
2019-03-09T13:03:10.817Z,1.70
2019-03-09T13:05:39.622Z,1.27
2019-03-09T13:08:07.259Z,3.83
2019-03-09T13:10:36.037Z,2.90
2019-03-09T13:13:04.424Z,3.93
2019-03-09T13:15:32.657Z,1.77
2019-03-09T13:18:00.595Z,1.80
2019-03-09T13:20:29.301Z,1.00
2019-03-09T13:22:57.609Z,3.57
2019-03-09T13:25:26.887Z,2.10
2019-03-09T13:27:54.950Z,1.60
2019-03-09T13:30:23.342Z,2.20
2019-03-09T13:32:52.098Z,1.37
2019-03-09T13:35:20.498Z,1.40
2019-03-09T13:37:48.027Z,1.63
2019-03-09T13:40:16.932Z,1.60
2019-03-09T13:42:45.257Z,1.40
2019-03-09T13:45:13.949Z,1.03
2019-03-09T13:47:42.321Z,1.33
2019-03-09T13:50:11.177Z,1.07
2019-03-09T13:52:39.579Z,1.30
2019-03-09T13:55:07.984Z,1.20
2019-03-09T13:57:35.959Z,0.90
2019-03-09T14:00:44.225Z,0.90
2019-03-09T14:03:12.958Z,1.10
2019-03-09T14:05:40.808Z,1.00
2019-03-09T14:08:09.156Z,1.00
2019-03-09T14:10:37.066Z,1.43
2019-03-09T14:13:04.968Z,1.30
2019-03-09T14:15:33.738Z,1.33
2019-03-09T14:18:02.092Z,1.77
2019-03-09T14:20:30.778Z,1.90
2019-03-09T14:22:59.583Z,1.33
2019-03-09T14:25:27.516Z,2.20
2019-03-09T14:27:56.383Z,3.40
2019-03-09T14:30:24.880Z,1.60
2019-03-09T14:32:53.103Z,1.67
2019-03-09T14:35:21.432Z,1.93
2019-03-09T14:37:49.012Z,1.63
2019-03-09T14:40:16.982Z,1.90
2019-03-09T14:42:45.254Z,1.60
2019-03-09T14:45:14.697Z,3.07
2019-03-09T14:47:42.719Z,2.50
2019-03-09T14:53:12.569Z,2.50
2019-03-09T14:55:41.053Z,2.00
2019-03-09T14:58:09.320Z,2.90
2019-03-09T15:00:38.222Z,2.93
2019-03-09T15:03:06.210Z,2.37
2019-03-09T15:05:34.824Z,1.20
2019-03-09T15:08:03.483Z,1.10
2019-03-09T15:10:31.920Z,0.93
2019-03-09T15:13:00.254Z,0.90
2019-03-09T15:15:27.790Z,0.90
2019-03-09T15:17:55.948Z,0.80
2019-03-09T15:20:23.869Z,0.70
2019-03-09T15:22:52.140Z,1.23
2019-03-09T15:25:20.727Z,0.90
2019-03-09T15:27:49.320Z,0.60
2019-03-09T15:30:17.827Z,0.60
2019-03-09T15:32:46.552Z,0.63
2019-03-09T15:35:15.087Z,0.70
2019-03-09T15:37:43.652Z,0.70
2019-03-09T15:40:12.199Z,0.70
2019-03-09T15:42:41.034Z,0.60
2019-03-09T15:45:10.542Z,0.60
2019-03-09T15:47:39.207Z,0.60
2019-03-09T15:50:08.482Z,0.60
2019-03-09T15:52:37.052Z,0.97
2019-03-09T15:55:04.661Z,0.73
2019-03-09T15:57:32.636Z,0.60
2019-03-09T16:00:01.488Z,0.50
2019-03-09T16:02:30.299Z,0.50
2019-03-09T16:04:59.295Z,0.80
2019-03-09T16:07:27.732Z,0.70
2019-03-09T16:09:56.457Z,0.80
2019-03-09T16:12:24.863Z,0.70
2019-03-09T16:14:53.912Z,0.90
2019-03-09T16:17:22.273Z,0.70
2019-03-09T16:19:50.720Z,1.10
2019-03-09T16:22:19.297Z,0.70
2019-03-09T16:24:47.658Z,0.80
2019-03-09T16:27:15.989Z,0.90
2019-03-09T16:29:44.748Z,0.70
2019-03-09T16:32:13.556Z,0.80
2019-03-09T16:34:41.642Z,0.80
2019-03-09T16:37:09.506Z,0.70
2019-03-09T16:39:38.272Z,0.63
2019-03-09T16:42:06.578Z,0.80
2019-03-09T16:44:35.393Z,0.90
2019-03-09T16:47:03.568Z,1.03
2019-03-09T16:49:32.243Z,1.10
2019-03-09T16:51:59.907Z,0.80
2019-03-09T16:54:28.212Z,0.90
2019-03-09T16:56:56.491Z,0.70
2019-03-09T16:59:24.767Z,1.13
2019-03-09T17:01:53.044Z,0.80
2019-03-09T17:04:33.588Z,0.93
2019-03-09T17:07:02.230Z,0.97
2019-03-09T17:09:30.276Z,0.90
2019-03-09T17:11:58.306Z,0.93
2019-03-09T17:14:26.638Z,0.97
2019-03-09T17:16:54.619Z,0.67
2019-03-09T17:19:23.177Z,1.10
2019-03-09T17:21:52.040Z,0.83
2019-03-09T17:24:20.640Z,0.80
2019-03-09T17:26:49.343Z,0.90
2019-03-09T17:29:18.123Z,0.90
2019-03-09T17:31:46.961Z,0.90
2019-03-09T17:34:15.272Z,1.30
2019-03-09T17:36:43.634Z,2.17
2019-03-09T17:39:11.745Z,2.17
2019-03-09T17:41:40.480Z,2.23
2019-03-09T17:44:07.998Z,1.57
2019-03-09T17:46:36.344Z,1.80
2019-03-09T17:49:04.635Z,1.33
2019-03-09T17:51:32.803Z,1.10
2019-03-09T17:54:00.900Z,2.00
2019-03-09T17:56:28.979Z,1.00
2019-03-09T17:58:57.665Z,2.60
2019-03-09T18:01:25.942Z,2.33
2019-03-09T18:03:54.004Z,2.00
2019-03-09T18:06:22.387Z,2.37
2019-03-09T18:08:50.804Z,2.00
2019-03-09T18:11:19.158Z,1.00
2019-03-09T18:13:47.551Z,1.40
2019-03-09T18:16:15.860Z,1.07
2019-03-09T18:18:44.640Z,1.20
2019-03-09T18:21:12.947Z,1.10
2019-03-09T18:23:41.392Z,1.50
2019-03-09T18:26:10.168Z,0.90
2019-03-09T18:28:38.535Z,0.87
2019-03-09T18:31:07.270Z,1.03
2019-03-09T18:33:36.518Z,1.30
2019-03-09T18:36:04.544Z,1.07
2019-03-09T18:38:33.157Z,1.30
2019-03-09T18:41:01.357Z,1.17
2019-03-09T18:43:30.062Z,1.27
2019-03-09T18:45:58.368Z,1.27
2019-03-09T18:48:26.783Z,1.00
2019-03-09T18:50:55.474Z,1.53
2019-03-09T18:53:23.461Z,1.00
2019-03-09T18:55:58.937Z,1.20
2019-03-09T18:58:22.137Z,2.10
2019-03-09T19:00:50.437Z,1.43
2019-03-09T19:03:19.148Z,1.50
2019-03-09T19:05:47.642Z,1.80
2019-03-09T19:08:16.099Z,1.63
2019-03-09T19:10:44.115Z,1.33
2019-03-09T19:13:12.929Z,1.47
2019-03-09T19:15:40.967Z,1.80
2019-03-09T19:18:09.933Z,1.97
2019-03-09T19:20:38.638Z,1.20
2019-03-09T19:23:07.255Z,1.10
2019-03-09T19:25:35.538Z,1.40
2019-03-09T19:28:03.079Z,1.70
2019-03-09T19:30:31.724Z,1.57
2019-03-09T19:33:00.761Z,1.10
2019-03-09T19:35:39.557Z,1.70
2019-03-09T19:38:07.932Z,1.30
2019-03-09T19:40:35.843Z,1.10
2019-03-09T19:43:03.906Z,1.23
2019-03-09T19:45:32.629Z,1.27
2019-03-09T19:48:01.453Z,1.40
2019-03-09T19:50:29.702Z,1.60
2019-03-09T19:52:59.321Z,2.50
2019-03-09T19:55:27.787Z,1.20
2019-03-09T19:57:56.208Z,1.07
2019-03-09T20:00:24.923Z,1.07
2019-03-09T20:02:53.715Z,1.20
2019-03-09T20:05:22.045Z,1.23
2019-03-09T20:07:50.748Z,1.20
2019-03-09T20:10:19.129Z,1.17
2019-03-09T20:12:47.408Z,0.97
2019-03-09T20:15:15.778Z,1.00
2019-03-09T20:17:45.866Z,1.10
2019-03-09T20:20:21.147Z,0.97
2019-03-09T20:22:49.932Z,2.30
2019-03-09T20:25:30.417Z,3.40
2019-03-09T20:27:59.085Z,2.53
2019-03-09T20:30:27.066Z,3.17
2019-03-09T20:32:55.877Z,6.43
2019-03-09T20:35:24.222Z,4.57
2019-03-09T20:37:52.639Z,5.50
2019-03-09T20:40:21.413Z,6.90
2019-03-09T20:42:50.004Z,3.40
2019-03-09T20:45:18.759Z,2.40
2019-03-09T20:47:47.086Z,3.63
2019-03-09T20:50:15.171Z,1.57
2019-03-09T20:52:43.256Z,1.73
2019-03-09T20:55:51.928Z,6.03
2019-03-09T20:58:20.644Z,3.20
2019-03-09T21:00:48.607Z,3.20
2019-03-09T21:03:17.409Z,4.37
2019-03-09T21:05:45.636Z,5.73
2019-03-09T21:08:13.979Z,3.70
2019-03-09T21:10:42.796Z,4.70
2019-03-09T21:13:11.382Z,4.97
2019-03-09T21:15:39.413Z,4.63
2019-03-09T21:18:07.736Z,2.70
2019-03-09T21:20:36.523Z,1.67
2019-03-09T21:23:05.203Z,1.60
2019-03-09T21:25:33.122Z,1.33
2019-03-09T21:28:01.888Z,2.10
2019-03-09T21:30:30.578Z,1.60
2019-03-09T21:32:59.420Z,1.57
2019-03-09T21:35:27.729Z,1.50
2019-03-09T21:37:56.160Z,1.73
2019-03-09T21:40:23.743Z,1.80
2019-03-09T21:42:52.688Z,1.83
2019-03-09T21:45:21.458Z,1.57
2019-03-09T21:47:49.876Z,1.50
2019-03-09T21:50:18.593Z,1.37
2019-03-09T21:52:46.526Z,1.70
2019-03-09T21:55:14.510Z,1.87
2019-03-09T21:57:42.955Z,1.43
2019-03-09T22:00:12.498Z,1.57
2019-03-09T22:02:40.878Z,1.77
2019-03-09T22:05:11.075Z,1.70
2019-03-09T22:07:39.920Z,1.60
2019-03-09T22:10:08.557Z,1.23
2019-03-09T22:12:36.918Z,1.40
2019-03-09T22:15:05.444Z,1.60
2019-03-09T22:17:33.736Z,1.57
2019-03-09T22:20:02.519Z,1.60
2019-03-09T22:22:31.134Z,1.77
2019-03-09T22:24:59.505Z,2.00
2019-03-09T22:27:28.104Z,1.40
2019-03-09T22:29:56.898Z,1.63
2019-03-09T22:32:25.263Z,1.30
2019-03-09T22:34:53.224Z,1.93
2019-03-09T22:37:21.808Z,1.57
2019-03-09T22:39:50.120Z,1.50
2019-03-09T22:42:17.711Z,1.53
2019-03-09T22:44:46.089Z,1.80
2019-03-09T22:47:14.835Z,1.80
2019-03-09T22:49:42.769Z,1.67
2019-03-09T22:52:10.733Z,2.80
2019-03-09T22:54:38.584Z,1.80
2019-03-09T22:57:06.870Z,1.90
2019-03-09T22:59:35.603Z,1.50
2019-03-09T23:04:44.581Z,1.20
2019-03-09T23:07:12.853Z,1.70
2019-03-09T23:09:41.065Z,1.50
2019-03-09T23:12:09.046Z,1.87
2019-03-09T23:14:37.729Z,1.67
2019-03-09T23:17:06.542Z,1.87
2019-03-09T23:19:34.812Z,1.30
2019-03-09T23:22:03.366Z,1.60
2019-03-09T23:24:31.674Z,2.43
2019-03-09T23:30:01.025Z,3.40
2019-03-09T23:32:28.967Z,6.23
2019-03-09T23:34:57.771Z,3.57
2019-03-09T23:37:25.024Z,2.37
2019-03-09T23:39:53.403Z,1.60
2019-03-09T23:42:21.680Z,1.80
2019-03-09T23:44:50.544Z,1.43
2019-03-09T23:47:18.458Z,1.70
2019-03-09T23:49:46.360Z,1.70
2019-03-09T23:52:14.822Z,1.27
2019-03-09T23:54:43.426Z,1.87
2019-03-09T23:57:11.299Z,1.57
2019-03-09T23:59:39.611Z,1.40
